Vers la page d'accueil de NAV CANADA Ouverture d'une nouvelle session Chercher sur le site AWWS Clause de non-reponsabilité To the equivalent English page Trucs et astuces FAQ Quoi de neuf sur le site Vers la section Prévisions et observations / NOTAM Vers le site web pour <<Déposer un plan de vol>> Publications et liens importants Mise à jour du profil d'usager Numéros de téléphone des FIC Mes données météo personnelles Données météo de route Données météo régionales Données météo locales Vers la section Prévisions et observations / NOTAM
Requête générée le 2021/04/12 à 04:26:29 UTC. L'information météorologique disponible à ce moment est affichée.

METAR/TAF

Si vous notez des différences entre le METAR/TAF codé et le METAR/TAF en langage clair, veuillez utiliser la version codée. Les bulletins LWIS ne sont pas décodés en langage clair.

MONTREAL INTL (MIRABEL)/QC    

METAR CYMX 120400Z 05011G25KT 020V080 25SM SCT250 08/01 A2977 RMK CI3 SLP083=
METAR
LIEU
CYMX - MONTREAL INTL (MIRABEL)/QC
DATE - HEURE
12 AVRIL 2021 - 0400 UTC
VENT
50 VRAIS @ 11  NOEUDS
VARIATION
20 <-> 80  DEG
RAFALES
25 NOEUDS
VISIBILITE
25 MILLES TERR.
PORTEE VISUELLE DE PISTE
METEO
NEBULOSITE
NUAGES EPARS (3/8 - 4/8) 25000  PI
TEMP / PT DE ROSEE
8 C / 1 C
ALTIMETRE
29.77 PO HG
TEMPS RECENT
CISAILLEMENT

METAR CYMX 120300Z 05011G21KT 010V090 25SM SCT230 09/01 A2976 RMK CI4 SLP080=
METAR
LIEU
CYMX - MONTREAL INTL (MIRABEL)/QC
DATE - HEURE
12 AVRIL 2021 - 0300 UTC
VENT
50 VRAIS @ 11  NOEUDS
VARIATION
10 <-> 90  DEG
RAFALES
21 NOEUDS
VISIBILITE
25 MILLES TERR.
PORTEE VISUELLE DE PISTE
METEO
NEBULOSITE
NUAGES EPARS (3/8 - 4/8) 23000  PI
TEMP / PT DE ROSEE
9 C / 1 C
ALTIMETRE
29.76 PO HG
TEMPS RECENT
CISAILLEMENT

METAR CYMX 120200Z 06010G18KT 25SM SCT250 10/00 A2974 RMK CI4 SLP075=
METAR
LIEU
CYMX - MONTREAL INTL (MIRABEL)/QC
DATE - HEURE
12 AVRIL 2021 - 0200 UTC
VENT
60 VRAIS @ 10  NOEUDS
RAFALES
18 NOEUDS
VISIBILITE
25 MILLES TERR.
PORTEE VISUELLE DE PISTE
METEO
NEBULOSITE
NUAGES EPARS (3/8 - 4/8) 25000  PI
TEMP / PT DE ROSEE
10 C / 0 C
ALTIMETRE
29.74 PO HG
TEMPS RECENT
CISAILLEMENT

TAF CYMX 112338Z 1200/1224 05010G20KT P6SM BKN270 FM120300 05010G20KT P6SM BKN040 BKN240 FM120700 06010G20KT P6SM FEW060 FM121200 06012G22KT P6SM FEW020 BKN040 RMK NXT FCST BY 120600Z=
TAF
LIEU

CYMX - MONTREAL INTL (MIRABEL)/QC
VALIDITE [UTC]
11 APR - 2338 à
13 APR - 0000
 
PERIODES
[UTC]
VENT
[DEGRES VRAIS]
VISIBILITE
[MILLES TERR.]
METEO
NEBULOSITE
[PIEDS AGL]
 
12 APR - 0000 à
12 APR - 0300
50 @ 10 NOEUDS
RAFALES 20 NOEUDS
6+
---
27000 FRAGMENTES
 
12 APR - 0300 à
12 APR - 0700
50 @ 10 NOEUDS
RAFALES 20 NOEUDS
6+
---
4000 FRAGMENTES
24000 FRAGMENTES
 
12 APR - 0700 à
12 APR - 1200
60 @ 10 NOEUDS
RAFALES 20 NOEUDS
6+
---
6000 QUELQUES
 
12 APR - 1200 à
13 APR - 0000
60 @ 12 NOEUDS
RAFALES 22 NOEUDS
6+
---
2000 QUELQUES
4000 FRAGMENTES
REMARQUES
LA PREVISION SUIVANTE SERA EMISE POUR 0600 UTC LE 12


Votre heure Heure UTC
Données météorologiques fournies par Environnement Canada et NAV CANADA